createdAt,value
2018-06-27T00:00:09.474Z,16.70
2018-06-27T00:02:38.660Z,16.00
2018-06-27T00:05:07.966Z,15.20
2018-06-27T00:07:37.245Z,16.30
2018-06-27T00:10:06.705Z,17.10
2018-06-27T00:12:35.853Z,17.20
2018-06-27T00:15:05.104Z,17.60
2018-06-27T00:17:34.218Z,18.20
2018-06-27T00:20:03.525Z,18.60
2018-06-27T00:22:32.698Z,19.00
2018-06-27T00:25:02.056Z,19.10
2018-06-27T00:27:31.315Z,19.20
2018-06-27T00:30:00.457Z,19.20
2018-06-27T00:32:29.639Z,19.10
2018-06-27T00:34:58.928Z,19.20
2018-06-27T00:37:27.944Z,19.20
2018-06-27T00:39:57.196Z,19.20
2018-06-27T00:42:27.104Z,19.10
2018-06-27T00:44:56.328Z,19.30
2018-06-27T00:47:25.504Z,19.20
2018-06-27T00:49:54.874Z,19.20
2018-06-27T00:52:24.177Z,19.20
2018-06-27T00:54:53.480Z,18.90
2018-06-27T00:57:22.801Z,18.60
2018-06-27T00:59:52.100Z,18.90
2018-06-27T01:02:21.394Z,19.00
2018-06-27T01:04:50.596Z,19.10
2018-06-27T01:07:19.800Z,19.10
2018-06-27T01:09:49.147Z,19.10
2018-06-27T01:12:18.332Z,18.90
2018-06-27T01:14:47.564Z,18.60
2018-06-27T01:17:16.649Z,17.90
2018-06-27T01:19:46.005Z,17.40
2018-06-27T01:22:15.265Z,17.40
2018-06-27T01:24:44.684Z,17.90
2018-06-27T01:27:14.104Z,18.30
2018-06-27T01:29:43.452Z,18.20
2018-06-27T01:32:12.748Z,18.40
2018-06-27T01:34:41.836Z,18.00
2018-06-27T01:37:11.014Z,16.70
2018-06-27T01:39:40.444Z,15.50
2018-06-27T01:42:09.501Z,16.80
2018-06-27T01:44:38.557Z,15.00
2018-06-27T01:47:07.680Z,15.10
2018-06-27T01:49:37.285Z,15.20
2018-06-27T01:52:06.341Z,15.50
2018-06-27T01:54:35.595Z,15.80
2018-06-27T01:57:05.100Z,15.30
2018-06-27T01:59:34.292Z,15.60
2018-06-27T02:02:03.637Z,16.50
2018-06-27T02:04:32.848Z,16.10
2018-06-27T02:07:02.164Z,15.30
2018-06-27T02:09:31.350Z,15.00
2018-06-27T02:12:00.676Z,15.40
2018-06-27T02:14:29.958Z,15.30
2018-06-27T02:16:59.404Z,15.60
2018-06-27T02:19:28.576Z,16.90
2018-06-27T02:21:57.935Z,17.20
2018-06-27T02:24:27.198Z,16.00
2018-06-27T02:26:56.771Z,14.50
2018-06-27T02:29:26.139Z,15.60
2018-06-27T02:31:55.371Z,14.90
2018-06-27T02:34:24.552Z,14.00
2018-06-27T02:36:53.792Z,14.50
2018-06-27T02:39:22.947Z,14.70
2018-06-27T02:41:52.327Z,14.40
2018-06-27T02:44:21.493Z,13.50
2018-06-27T02:46:50.848Z,14.60
2018-06-27T02:49:20.023Z,14.60
2018-06-27T02:51:49.156Z,14.30
2018-06-27T02:54:18.430Z,15.50
2018-06-27T02:56:47.791Z,16.50
2018-06-27T02:59:17.105Z,16.70
2018-06-27T03:01:46.421Z,14.80
2018-06-27T03:04:15.480Z,15.80
2018-06-27T03:06:44.749Z,17.00
2018-06-27T03:09:14.130Z,17.20
2018-06-27T03:11:43.321Z,16.40
2018-06-27T03:14:12.563Z,15.80
2018-06-27T03:16:41.849Z,15.50
2018-06-27T03:19:11.093Z,16.70
2018-06-27T03:21:40.394Z,16.20
2018-06-27T03:24:09.721Z,16.00
2018-06-27T03:26:39.143Z,15.20
2018-06-27T03:29:08.544Z,15.20
2018-06-27T03:31:37.605Z,14.70
2018-06-27T03:34:06.836Z,15.80
2018-06-27T03:36:36.105Z,15.80
2018-06-27T03:39:07.769Z,16.80
2018-06-27T03:41:36.949Z,17.30
2018-06-27T03:44:06.352Z,18.10
2018-06-27T03:46:35.624Z,18.00
2018-06-27T03:49:04.933Z,18.40
2018-06-27T03:51:34.620Z,18.50
2018-06-27T03:54:04.519Z,17.60
2018-06-27T03:56:33.541Z,18.30
2018-06-27T03:59:02.772Z,17.90
2018-06-27T04:01:31.993Z,18.00
2018-06-27T04:04:01.109Z,18.10
2018-06-27T04:06:30.428Z,17.30
2018-06-27T04:08:59.749Z,17.80
2018-06-27T04:11:28.914Z,17.80
2018-06-27T04:13:58.160Z,17.60
2018-06-27T04:16:27.340Z,14.90
2018-06-27T04:18:57.216Z,16.00
2018-06-27T04:21:26.373Z,17.20
2018-06-27T04:23:55.517Z,16.70
2018-06-27T04:26:24.733Z,15.90
2018-06-27T04:28:53.904Z,15.90
2018-06-27T04:31:23.235Z,15.60
2018-06-27T04:33:52.619Z,16.40
2018-06-27T04:36:21.864Z,16.40
2018-06-27T04:38:51.045Z,17.30
2018-06-27T04:41:20.385Z,17.80
2018-06-27T04:43:49.456Z,19.80
2018-06-27T04:46:18.500Z,20.80
2018-06-27T04:48:47.796Z,21.00
2018-06-27T04:53:45.573Z,21.40
2018-06-27T04:56:14.844Z,21.30
2018-06-27T04:58:44.000Z,20.00
2018-06-27T05:01:13.364Z,18.80
2018-06-27T05:03:42.531Z,18.10
2018-06-27T05:06:11.785Z,19.00
2018-06-27T05:08:41.150Z,21.30
2018-06-27T05:11:10.512Z,20.50
2018-06-27T05:13:39.784Z,19.20
2018-06-27T05:16:09.025Z,19.80
2018-06-27T05:18:38.233Z,20.20
2018-06-27T05:21:07.645Z,19.70
2018-06-27T05:23:36.708Z,18.40
2018-06-27T05:26:06.774Z,19.90
2018-06-27T05:28:35.965Z,19.90
2018-06-27T05:31:05.457Z,20.20
2018-06-27T05:33:34.564Z,19.30
2018-06-27T05:36:03.824Z,19.40
2018-06-27T05:38:33.140Z,20.10
2018-06-27T05:41:02.477Z,20.40
2018-06-27T05:46:00.476Z,22.70
2018-06-27T05:48:29.768Z,20.70
2018-06-27T05:50:59.267Z,21.60
2018-06-27T05:53:28.441Z,20.40
2018-06-27T05:58:26.390Z,20.10
2018-06-27T06:00:55.724Z,21.00
2018-06-27T06:03:24.984Z,22.50
2018-06-27T06:05:53.993Z,22.90
2018-06-27T06:08:23.352Z,20.40
2018-06-27T06:10:52.633Z,20.40
2018-06-27T06:13:22.035Z,21.70
2018-06-27T06:15:51.369Z,20.40
2018-06-27T06:18:20.707Z,21.30
2018-06-27T06:20:49.868Z,21.00
2018-06-27T06:23:19.228Z,21.30
2018-06-27T06:25:48.289Z,21.90
2018-06-27T06:28:17.461Z,22.70
2018-06-27T06:33:15.441Z,22.20
2018-06-27T06:35:44.825Z,23.70
2018-06-27T06:38:14.073Z,22.10
2018-06-27T06:40:43.343Z,21.60
2018-06-27T06:43:12.791Z,22.80
2018-06-27T06:45:41.884Z,23.10
2018-06-27T06:48:11.120Z,21.70
2018-06-27T06:50:40.292Z,21.90
2018-06-27T06:53:09.641Z,23.30
2018-06-27T06:55:38.915Z,22.20
2018-06-27T06:58:08.171Z,22.80
2018-06-27T07:00:37.494Z,23.20
2018-06-27T07:03:06.886Z,24.80
2018-06-27T07:05:36.169Z,24.60
2018-06-27T07:08:05.616Z,23.80
2018-06-27T07:10:34.677Z,23.10
2018-06-27T07:13:03.860Z,23.40
2018-06-27T07:15:33.143Z,23.10
2018-06-27T07:18:02.311Z,23.70
2018-06-27T07:20:31.444Z,23.90
2018-06-27T07:23:00.945Z,23.00
2018-06-27T07:25:30.188Z,22.50
2018-06-27T07:27:59.464Z,22.90
2018-06-27T07:30:28.532Z,23.20
2018-06-27T07:32:57.540Z,24.10
2018-06-27T07:35:26.885Z,23.50
2018-06-27T07:37:56.156Z,23.60
2018-06-27T07:40:25.384Z,23.60
2018-06-27T07:42:54.774Z,25.80
2018-06-27T07:45:24.222Z,25.00
2018-06-27T07:47:53.392Z,26.20
2018-06-27T07:50:22.638Z,23.80
2018-06-27T07:52:51.858Z,27.00
2018-06-27T07:55:21.282Z,27.20
2018-06-27T07:57:50.636Z,26.60
2018-06-27T08:00:19.792Z,24.90
2018-06-27T08:02:48.961Z,25.40
2018-06-27T08:05:18.286Z,26.50
2018-06-27T08:07:47.686Z,26.70
2018-06-27T08:10:16.821Z,24.80
2018-06-27T08:12:46.048Z,24.20
2018-06-27T08:15:15.467Z,26.80
2018-06-27T08:17:44.659Z,26.00
2018-06-27T08:20:13.781Z,25.60
2018-06-27T08:22:43.044Z,26.80
2018-06-27T08:25:12.356Z,25.70
2018-06-27T08:27:41.508Z,25.80
2018-06-27T08:30:10.780Z,26.30
2018-06-27T08:32:40.333Z,27.10
2018-06-27T08:35:09.613Z,25.60
2018-06-27T08:37:38.845Z,25.30
2018-06-27T08:40:08.124Z,25.60
2018-06-27T08:42:37.160Z,27.90
2018-06-27T08:45:06.436Z,28.10
2018-06-27T08:47:35.698Z,29.80
2018-06-27T08:50:05.028Z,27.80
2018-06-27T08:52:34.324Z,27.30
2018-06-27T08:55:03.530Z,29.40
2018-06-27T08:57:32.746Z,27.10
2018-06-27T09:00:01.804Z,29.50
2018-06-27T09:02:31.175Z,29.00
2018-06-27T09:05:00.230Z,28.50
2018-06-27T09:07:29.470Z,29.90
2018-06-27T09:09:58.513Z,30.60
2018-06-27T09:12:27.792Z,32.10
2018-06-27T09:14:57.069Z,27.90
2018-06-27T09:17:26.402Z,27.10
2018-06-27T09:19:55.622Z,26.80
2018-06-27T09:22:24.796Z,26.10
2018-06-27T09:24:53.936Z,27.50
2018-06-27T09:27:23.084Z,27.30
2018-06-27T09:29:52.269Z,27.10
2018-06-27T09:32:21.321Z,26.20
2018-06-27T09:34:50.450Z,26.30
2018-06-27T09:37:19.620Z,30.40
2018-06-27T09:39:48.845Z,28.50
2018-06-27T09:42:18.015Z,27.10
2018-06-27T09:44:47.469Z,28.20
2018-06-27T09:47:16.746Z,26.60
2018-06-27T09:49:45.781Z,28.10
2018-06-27T09:52:15.005Z,28.20
2018-06-27T09:54:44.325Z,29.50
2018-06-27T09:57:14.156Z,28.30
2018-06-27T09:59:43.725Z,28.10
2018-06-27T10:02:13.340Z,28.70
2018-06-27T10:04:42.613Z,27.60
2018-06-27T10:07:11.673Z,29.70
2018-06-27T10:09:41.016Z,28.10
2018-06-27T10:12:10.189Z,27.50
2018-06-27T10:14:39.228Z,27.30
2018-06-27T10:17:08.777Z,29.40
2018-06-27T10:19:37.973Z,28.00
2018-06-27T10:22:07.377Z,28.60
2018-06-27T10:24:36.549Z,27.30
2018-06-27T10:27:05.902Z,28.30
2018-06-27T10:29:35.069Z,27.80
2018-06-27T10:32:04.533Z,27.60
2018-06-27T10:34:33.968Z,27.50
2018-06-27T10:37:03.109Z,27.40
2018-06-27T10:39:32.780Z,28.10
2018-06-27T10:42:02.172Z,29.30
2018-06-27T10:44:32.263Z,29.20
2018-06-27T10:47:01.784Z,28.30
2018-06-27T10:49:31.158Z,28.10
2018-06-27T10:52:00.757Z,28.60
2018-06-27T10:54:30.169Z,27.70
2018-06-27T10:56:59.561Z,29.50
2018-06-27T10:59:29.163Z,28.70
2018-06-27T11:01:58.642Z,29.70
2018-06-27T11:04:27.871Z,28.40
2018-06-27T11:06:57.197Z,28.60
2018-06-27T11:09:26.468Z,27.90
2018-06-27T11:11:55.797Z,28.20
2018-06-27T11:14:24.870Z,28.60
2018-06-27T11:16:54.124Z,29.10
2018-06-27T11:19:23.196Z,30.20
2018-06-27T11:21:52.329Z,29.50
2018-06-27T11:24:21.872Z,29.00
2018-06-27T11:26:51.180Z,28.40
2018-06-27T11:29:20.562Z,28.10
2018-06-27T11:31:49.905Z,26.50
2018-06-27T11:34:19.472Z,26.40
2018-06-27T11:36:48.783Z,26.80
2018-06-27T11:39:18.277Z,27.30
2018-06-27T11:44:16.384Z,26.20
2018-06-27T11:46:46.094Z,26.00
2018-06-27T11:49:15.828Z,26.10
2018-06-27T11:54:14.969Z,26.00
2018-06-27T11:56:44.358Z,26.30
2018-06-27T11:59:13.823Z,26.50
2018-06-27T12:01:43.189Z,26.50
2018-06-27T12:04:12.525Z,26.60
2018-06-27T12:06:41.612Z,26.80
2018-06-27T12:09:11.464Z,26.20
2018-06-27T12:11:40.692Z,26.20
2018-06-27T12:14:10.033Z,26.50
2018-06-27T12:16:39.344Z,26.80
2018-06-27T12:19:08.708Z,26.70
2018-06-27T12:21:38.425Z,26.60
2018-06-27T12:24:07.717Z,26.10
2018-06-27T12:26:37.025Z,26.70
2018-06-27T12:29:06.335Z,26.50
2018-06-27T12:31:35.629Z,26.80
2018-06-27T12:34:04.986Z,27.00
2018-06-27T12:36:34.221Z,27.60
2018-06-27T12:39:03.799Z,27.20
2018-06-27T12:41:33.056Z,27.20
2018-06-27T12:44:02.421Z,27.30
2018-06-27T12:46:31.584Z,26.50
2018-06-27T12:49:01.041Z,26.60
2018-06-27T12:51:30.344Z,27.50
2018-06-27T12:53:59.799Z,27.70
2018-06-27T12:56:29.224Z,27.60
2018-06-27T12:58:58.674Z,27.70
2018-06-27T13:01:28.221Z,27.40
2018-06-27T13:03:57.621Z,27.30
2018-06-27T13:06:27.129Z,27.30
2018-06-27T13:08:56.717Z,27.00
2018-06-27T13:11:26.106Z,26.30
2018-06-27T13:13:55.530Z,26.20
2018-06-27T13:18:53.805Z,26.50
2018-06-27T13:21:23.228Z,26.80
2018-06-27T13:23:52.562Z,26.50
2018-06-27T13:26:21.944Z,26.50
2018-06-27T13:28:51.229Z,26.70
2018-06-27T13:31:20.589Z,26.30
2018-06-27T13:33:49.850Z,26.40
2018-06-27T13:36:19.193Z,26.30
2018-06-27T13:38:48.326Z,25.80
2018-06-27T13:41:17.625Z,26.10
2018-06-27T13:43:46.825Z,26.30
2018-06-27T13:46:16.206Z,27.00
2018-06-27T13:48:45.637Z,27.00
2018-06-27T13:51:14.881Z,26.90
2018-06-27T13:53:44.040Z,26.70
2018-06-27T13:56:13.157Z,26.20
2018-06-27T13:58:42.724Z,26.40
2018-06-27T14:01:11.882Z,26.70
2018-06-27T14:03:41.249Z,27.00
2018-06-27T14:06:10.872Z,27.20
2018-06-27T14:08:40.348Z,27.10
2018-06-27T14:11:09.867Z,26.60
2018-06-27T14:13:39.252Z,26.10
2018-06-27T14:16:08.811Z,25.50
2018-06-27T14:18:38.275Z,25.90
2018-06-27T14:21:07.582Z,26.50
2018-06-27T14:23:36.924Z,26.50
2018-06-27T14:26:06.244Z,26.40
2018-06-27T14:28:35.829Z,26.00
2018-06-27T14:31:05.149Z,25.90
2018-06-27T14:33:34.678Z,26.10
2018-06-27T14:36:03.922Z,26.30
2018-06-27T14:38:33.400Z,26.20
2018-06-27T14:41:02.935Z,26.00
2018-06-27T14:43:32.206Z,25.90
2018-06-27T14:46:01.355Z,26.00
2018-06-27T14:48:30.709Z,26.30
2018-06-27T14:50:59.877Z,26.50
2018-06-27T14:53:29.109Z,26.80
2018-06-27T14:55:58.535Z,27.00
2018-06-27T14:58:27.845Z,26.60
2018-06-27T15:00:57.266Z,26.40
2018-06-27T15:03:26.850Z,26.40
2018-06-27T15:05:56.490Z,26.30
2018-06-27T15:08:25.922Z,26.50
2018-06-27T15:10:55.382Z,26.70
2018-06-27T15:13:24.603Z,26.80
2018-06-27T15:15:53.881Z,27.10
2018-06-27T15:18:23.172Z,27.10
2018-06-27T15:20:52.477Z,26.60
2018-06-27T15:23:21.691Z,26.50
2018-06-27T15:25:50.900Z,26.10
2018-06-27T15:28:20.180Z,26.10
2018-06-27T15:30:49.425Z,26.30
2018-06-27T15:33:18.821Z,26.40
2018-06-27T15:35:48.069Z,26.40
2018-06-27T15:38:17.240Z,26.20
2018-06-27T15:40:46.685Z,26.40
2018-06-27T15:43:15.969Z,26.00
2018-06-27T15:45:45.306Z,26.20
2018-06-27T15:48:14.577Z,26.20
2018-06-27T15:50:43.815Z,26.00
2018-06-27T15:53:13.306Z,26.10
2018-06-27T15:55:42.856Z,26.00
2018-06-27T15:58:12.169Z,25.90
2018-06-27T16:00:41.525Z,25.80
2018-06-27T16:03:11.081Z,25.80
2018-06-27T16:05:40.381Z,25.50
2018-06-27T16:08:09.961Z,25.40
2018-06-27T16:10:39.535Z,25.50
2018-06-27T16:13:09.070Z,25.60
2018-06-27T16:15:38.671Z,25.60
2018-06-27T16:18:07.985Z,25.60
2018-06-27T16:20:37.581Z,25.60
2018-06-27T16:23:07.154Z,25.80
2018-06-27T16:25:36.693Z,25.70
2018-06-27T16:28:06.327Z,25.70
2018-06-27T16:30:35.586Z,25.70
2018-06-27T16:33:05.693Z,26.00
2018-06-27T16:35:40.306Z,25.80
2018-06-27T16:38:09.619Z,25.90
2018-06-27T16:40:39.184Z,25.40
2018-06-27T16:43:08.713Z,25.50
2018-06-27T16:45:38.266Z,25.40
2018-06-27T16:48:07.453Z,25.60
2018-06-27T16:50:36.669Z,25.60
2018-06-27T16:53:06.061Z,25.50
2018-06-27T16:55:35.435Z,25.30
2018-06-27T16:58:04.877Z,25.40
2018-06-27T17:00:34.157Z,25.30
2018-06-27T17:03:03.494Z,25.00
2018-06-27T17:05:32.769Z,25.00
2018-06-27T17:08:02.245Z,25.00
2018-06-27T17:10:31.601Z,25.00
2018-06-27T17:13:00.965Z,25.10
2018-06-27T17:15:30.266Z,24.90
2018-06-27T17:17:59.504Z,25.30
2018-06-27T17:20:28.940Z,25.00
2018-06-27T17:22:58.362Z,24.80
2018-06-27T17:25:27.963Z,24.70
2018-06-27T17:27:57.663Z,24.80
2018-06-27T17:30:27.138Z,24.60
2018-06-27T17:32:56.601Z,24.50
2018-06-27T17:35:26.325Z,24.60
2018-06-27T17:37:55.745Z,24.60
2018-06-27T17:40:25.509Z,24.60
2018-06-27T17:42:55.114Z,24.60
2018-06-27T17:45:24.761Z,24.80
2018-06-27T17:47:53.961Z,25.00
2018-06-27T17:50:23.525Z,24.90
2018-06-27T17:55:22.171Z,24.60
2018-06-27T17:57:51.565Z,24.50
2018-06-27T18:00:21.005Z,24.70
2018-06-27T18:02:50.496Z,24.60
2018-06-27T18:05:20.133Z,24.90
2018-06-27T18:07:49.788Z,24.70
2018-06-27T18:10:19.433Z,24.50
2018-06-27T18:12:48.857Z,24.10
2018-06-27T18:15:18.573Z,24.20
2018-06-27T18:17:48.062Z,24.10
2018-06-27T18:20:17.671Z,24.30
2018-06-27T18:22:47.090Z,24.30
2018-06-27T18:25:16.713Z,24.40
2018-06-27T18:27:46.320Z,24.50
2018-06-27T18:30:15.863Z,24.20
2018-06-27T18:32:45.293Z,24.10
2018-06-27T18:35:15.018Z,24.10
2018-06-27T18:37:44.334Z,24.20
2018-06-27T18:40:14.039Z,24.00
2018-06-27T18:42:43.338Z,24.00
2018-06-27T18:45:12.664Z,24.00
2018-06-27T18:47:41.978Z,24.00
2018-06-27T18:50:11.266Z,24.00
2018-06-27T18:52:40.501Z,23.70
2018-06-27T18:55:09.768Z,23.60
2018-06-27T18:57:39.028Z,23.60
2018-06-27T19:00:10.160Z,23.60
2018-06-27T19:02:39.692Z,23.60
2018-06-27T19:05:08.985Z,23.80
2018-06-27T19:07:39.624Z,23.80
2018-06-27T19:10:08.927Z,23.70
2018-06-27T19:12:38.377Z,23.40
2018-06-27T19:15:09.379Z,23.70
2018-06-27T19:17:38.581Z,23.90
2018-06-27T19:20:07.866Z,23.90
2018-06-27T19:22:38.511Z,24.10
2018-06-27T19:25:07.916Z,24.20
2018-06-27T19:27:37.266Z,23.60
2018-06-27T19:30:06.783Z,23.40
2018-06-27T19:32:35.996Z,23.20
2018-06-27T19:35:05.478Z,23.70
2018-06-27T19:37:34.831Z,23.30
2018-06-27T19:40:04.100Z,23.10
2018-06-27T19:42:33.453Z,23.30
2018-06-27T19:45:02.621Z,23.50
2018-06-27T19:47:31.928Z,23.60
2018-06-27T19:50:01.653Z,24.00
2018-06-27T19:52:30.940Z,23.90
2018-06-27T19:55:00.223Z,24.00
2018-06-27T19:57:29.639Z,23.90
2018-06-27T19:59:58.826Z,23.80
2018-06-27T20:02:28.423Z,23.80
2018-06-27T20:04:57.929Z,24.00
2018-06-27T20:07:27.301Z,24.10
2018-06-27T20:09:56.532Z,24.00
2018-06-27T20:12:26.619Z,23.80
2018-06-27T20:14:56.030Z,23.60
2018-06-27T20:17:25.487Z,23.60
2018-06-27T20:19:54.960Z,23.50
2018-06-27T20:22:24.646Z,23.70
2018-06-27T20:24:54.059Z,23.70
2018-06-27T20:27:23.608Z,23.20
2018-06-27T20:29:54.489Z,23.20
2018-06-27T20:32:23.892Z,23.00
2018-06-27T20:34:53.386Z,23.00
2018-06-27T20:37:22.851Z,23.30
2018-06-27T20:39:52.541Z,23.50
2018-06-27T20:42:22.225Z,23.70
2018-06-27T20:44:51.728Z,23.80
2018-06-27T20:47:21.229Z,23.80
2018-06-27T20:49:50.618Z,23.80
2018-06-27T20:52:19.938Z,23.80
2018-06-27T20:54:49.151Z,23.80
2018-06-27T20:57:18.306Z,23.80
2018-06-27T20:59:47.769Z,23.80
2018-06-27T21:02:17.033Z,23.70
2018-06-27T21:04:46.184Z,23.80
2018-06-27T21:07:15.563Z,23.70
2018-06-27T21:09:44.900Z,23.70
2018-06-27T21:12:14.224Z,23.60
2018-06-27T21:14:43.560Z,23.60
2018-06-27T21:17:12.808Z,23.60
2018-06-27T21:19:42.362Z,23.50
2018-06-27T21:22:11.737Z,23.30
2018-06-27T21:24:41.209Z,23.40
2018-06-27T21:27:10.360Z,23.40
2018-06-27T21:29:39.528Z,23.40
2018-06-27T21:32:08.790Z,23.30
2018-06-27T21:34:38.038Z,23.30
2018-06-27T21:37:07.355Z,23.30
2018-06-27T21:39:36.512Z,23.20
2018-06-27T21:42:05.880Z,23.10
2018-06-27T21:44:35.041Z,23.10
2018-06-27T21:47:04.376Z,22.90
2018-06-27T21:49:33.691Z,22.90
2018-06-27T21:52:02.996Z,23.10
2018-06-27T21:54:32.202Z,22.50
2018-06-27T21:57:01.453Z,22.90
2018-06-27T21:59:30.837Z,22.90
2018-06-27T22:02:00.376Z,22.50
2018-06-27T22:04:29.843Z,22.90
2018-06-27T22:06:59.247Z,22.20
2018-06-27T22:09:28.598Z,21.70
2018-06-27T22:11:57.977Z,21.60
2018-06-27T22:14:27.325Z,21.50
2018-06-27T22:16:56.865Z,21.50
2018-06-27T22:19:26.268Z,21.00
2018-06-27T22:21:55.827Z,20.90
2018-06-27T22:24:24.953Z,21.10
2018-06-27T22:26:54.521Z,21.80
2018-06-27T22:29:23.800Z,21.70
2018-06-27T22:31:53.069Z,21.90
2018-06-27T22:34:22.365Z,21.60
2018-06-27T22:36:51.859Z,21.70
2018-06-27T22:39:21.199Z,21.50
2018-06-27T22:41:50.533Z,21.90
2018-06-27T22:44:19.941Z,21.50
2018-06-27T22:46:49.329Z,21.20
2018-06-27T22:49:18.765Z,21.30
2018-06-27T22:51:48.266Z,20.80
2018-06-27T22:54:17.688Z,21.20
2018-06-27T22:56:47.088Z,21.90
2018-06-27T22:59:16.456Z,21.80
2018-06-27T23:01:46.183Z,21.70
2018-06-27T23:04:15.596Z,21.40
2018-06-27T23:06:45.208Z,20.80
2018-06-27T23:09:14.620Z,21.20
2018-06-27T23:11:43.905Z,21.60
2018-06-27T23:14:13.336Z,22.00
2018-06-27T23:16:42.563Z,22.30
2018-06-27T23:19:11.731Z,21.80
2018-06-27T23:21:41.029Z,21.20
2018-06-27T23:24:10.237Z,21.20
2018-06-27T23:26:39.410Z,21.30
2018-06-27T23:29:08.852Z,21.80
2018-06-27T23:31:38.128Z,21.80
2018-06-27T23:34:07.404Z,21.80
2018-06-27T23:36:36.760Z,21.50
2018-06-27T23:39:09.210Z,22.00
2018-06-27T23:41:38.353Z,22.00
2018-06-27T23:44:07.602Z,22.40
2018-06-27T23:46:36.932Z,21.90
2018-06-27T23:49:06.388Z,22.20
2018-06-27T23:51:35.759Z,22.40
2018-06-27T23:54:05.038Z,22.50
2018-06-27T23:56:34.473Z,22.50
2018-06-27T23:59:03.704Z,22.50
